createdAt,value
2019-02-10T00:01:31.304Z,0.65
2019-02-10T00:06:40.804Z,0.54
2019-02-10T00:11:49.982Z,0.54
2019-02-10T00:16:59.211Z,0.75
2019-02-10T00:22:08.406Z,0.46
2019-02-10T00:27:17.631Z,0.77
2019-02-10T00:32:26.973Z,0.39
2019-02-10T00:37:36.126Z,0.41
2019-02-10T00:42:45.390Z,0.44
2019-02-10T00:47:54.643Z,0.67
2019-02-10T00:53:03.895Z,0.35
2019-02-10T00:58:13.075Z,0.52
2019-02-10T01:03:22.314Z,0.38
2019-02-10T01:08:31.458Z,0.51
2019-02-10T01:13:40.737Z,0.39
2019-02-10T01:18:49.871Z,0.78
2019-02-10T01:23:59.103Z,0.56
2019-02-10T01:29:08.330Z,0.42
2019-02-10T01:34:17.566Z,0.53
2019-02-10T01:39:26.799Z,0.61
2019-02-10T01:44:36.031Z,0.61
2019-02-10T01:49:45.274Z,0.48
2019-02-10T01:54:54.532Z,0.59
2019-02-10T02:00:03.881Z,0.53
2019-02-10T02:05:13.048Z,0.71
2019-02-10T02:10:22.388Z,0.49
2019-02-10T02:15:31.640Z,0.49
2019-02-10T02:20:40.927Z,0.57
2019-02-10T02:25:50.138Z,0.63
2019-02-10T02:30:59.513Z,0.71
2019-02-10T02:36:08.691Z,0.53
2019-02-10T02:41:18.019Z,0.55
2019-02-10T02:46:27.246Z,0.81
2019-02-10T02:51:36.542Z,0.48
2019-02-10T02:56:45.730Z,0.82
2019-02-10T03:01:54.962Z,0.68
2019-02-10T03:07:04.135Z,0.57
2019-02-10T03:12:13.350Z,0.52
2019-02-10T03:17:22.499Z,0.61
2019-02-10T03:22:31.797Z,0.92
2019-02-10T03:27:40.927Z,0.78
2019-02-10T03:32:50.197Z,0.53
2019-02-10T03:37:59.430Z,0.87
2019-02-10T03:43:08.674Z,0.92
2019-02-10T03:48:17.845Z,0.60
2019-02-10T03:53:27.371Z,0.99
2019-02-10T03:58:36.562Z,0.56
2019-02-10T04:03:45.818Z,0.70
2019-02-10T04:08:55.012Z,1.05
2019-02-10T04:14:04.255Z,0.92
2019-02-10T04:19:13.569Z,0.80
2019-02-10T04:24:22.933Z,1.00
2019-02-10T04:29:32.172Z,0.81
2019-02-10T04:34:41.544Z,0.70
2019-02-10T04:39:50.709Z,0.76
2019-02-10T04:45:00.044Z,0.76
2019-02-10T04:50:09.235Z,0.98
2019-02-10T04:55:18.530Z,0.96
2019-02-10T05:00:27.738Z,1.11
2019-02-10T05:05:37.008Z,0.79
2019-02-10T05:10:46.291Z,0.78
2019-02-10T05:15:55.534Z,0.86
2019-02-10T05:21:04.782Z,1.55
2019-02-10T05:26:14.141Z,0.83
2019-02-10T05:31:23.512Z,1.04
2019-02-10T05:36:32.751Z,0.92
2019-02-10T05:41:41.958Z,1.03
2019-02-10T05:46:51.344Z,0.84
2019-02-10T05:52:00.611Z,1.03
2019-02-10T05:57:09.835Z,0.70
2019-02-10T06:02:19.117Z,0.89
2019-02-10T06:07:28.339Z,1.15
2019-02-10T06:12:37.572Z,1.07
2019-02-10T06:17:46.995Z,0.68
2019-02-10T06:22:56.175Z,0.98
2019-02-10T06:28:05.377Z,0.75
2019-02-10T06:33:14.546Z,1.07
2019-02-10T06:38:25.446Z,0.96
2019-02-10T06:43:24.707Z,0.80
2019-02-10T06:48:34.130Z,0.91
2019-02-10T06:53:43.327Z,0.83
2019-02-10T06:58:52.842Z,1.02
2019-02-10T07:04:02.116Z,0.97
2019-02-10T07:09:11.364Z,1.07
2019-02-10T07:14:20.652Z,0.92
2019-02-10T07:19:29.976Z,1.36
2019-02-10T07:24:39.171Z,1.40
2019-02-10T07:29:48.499Z,0.89
2019-02-10T07:34:57.746Z,0.91
2019-02-10T07:40:07.025Z,0.93
2019-02-10T07:45:16.552Z,0.81
2019-02-10T07:50:26.043Z,0.56
2019-02-10T07:55:35.282Z,0.64
2019-02-10T08:00:44.770Z,1.01
2019-02-10T08:05:54.054Z,0.91
2019-02-10T08:11:03.314Z,0.80
2019-02-10T08:16:12.760Z,0.86
2019-02-10T08:21:22.018Z,0.96
2019-02-10T08:26:31.609Z,0.81
2019-02-10T08:31:40.989Z,1.09
2019-02-10T08:36:50.242Z,0.76
2019-02-10T08:41:59.515Z,0.62
2019-02-10T08:47:08.761Z,0.78
2019-02-10T08:52:18.031Z,0.63
2019-02-10T08:57:27.182Z,0.78
2019-02-10T09:02:36.447Z,0.78
2019-02-10T09:07:45.630Z,0.64
2019-02-10T09:12:54.975Z,0.94
2019-02-10T09:18:04.152Z,1.49
2019-02-10T09:23:13.458Z,1.46
2019-02-10T09:28:22.839Z,0.96
2019-02-10T09:33:32.119Z,0.99
2019-02-10T09:38:41.362Z,1.17
2019-02-10T09:43:50.614Z,0.94
2019-02-10T09:48:59.931Z,0.88
2019-02-10T09:54:09.176Z,1.21
2019-02-10T09:59:18.439Z,1.04
2019-02-10T10:04:27.714Z,0.79
2019-02-10T10:09:36.883Z,0.97
2019-02-10T10:14:46.155Z,0.78
2019-02-10T10:21:04.018Z,1.14
2019-02-10T10:26:13.252Z,1.41
2019-02-10T10:31:22.606Z,1.15
2019-02-10T10:36:31.881Z,1.53
2019-02-10T10:41:41.350Z,0.94
2019-02-10T10:46:50.595Z,1.27
2019-02-10T10:51:59.932Z,0.84
2019-02-10T10:57:09.453Z,0.74
2019-02-10T11:02:18.806Z,1.00
2019-02-10T11:07:27.991Z,0.95
2019-02-10T11:12:37.382Z,0.91
2019-02-10T11:17:46.599Z,1.08
2019-02-10T11:22:55.887Z,0.81
2019-02-10T11:28:05.050Z,0.62
2019-02-10T11:33:14.314Z,1.17
2019-02-10T11:38:23.483Z,0.70
2019-02-10T11:43:32.798Z,0.79
2019-02-10T11:48:41.138Z,0.67
2019-02-10T11:53:50.458Z,0.86
2019-02-10T11:58:59.945Z,0.55
2019-02-10T12:04:09.390Z,0.70
2019-02-10T12:09:19.200Z,0.55
2019-02-10T12:14:28.406Z,0.47
2019-02-10T12:19:37.778Z,0.42
2019-02-10T12:24:48.336Z,0.42
2019-02-10T12:29:56.501Z,0.51
2019-02-10T12:35:05.953Z,0.60
2019-02-10T12:40:15.408Z,0.44
2019-02-10T12:45:24.820Z,0.46
2019-02-10T12:50:37.440Z,0.42
2019-02-10T12:55:36.789Z,0.38
2019-02-10T13:01:36.764Z,0.42
2019-02-10T13:06:36.662Z,0.32
2019-02-10T13:11:58.629Z,0.34
2019-02-10T13:16:52.433Z,0.22
2019-02-10T13:21:51.756Z,0.29
2019-02-10T13:27:01.228Z,0.35
2019-02-10T13:32:10.710Z,0.35
2019-02-10T13:37:20.073Z,0.27
2019-02-10T13:42:29.771Z,0.45
2019-02-10T13:47:38.970Z,0.31
2019-02-10T13:52:48.257Z,0.72
2019-02-10T13:57:57.453Z,0.48
2019-02-10T14:03:06.690Z,0.23
2019-02-10T14:08:15.804Z,0.32
2019-02-10T14:13:25.062Z,0.26
2019-02-10T14:18:34.263Z,0.58
2019-02-10T14:23:43.608Z,0.26
2019-02-10T14:28:52.787Z,0.31
2019-02-10T14:34:03.391Z,0.31
2019-02-10T14:39:10.758Z,0.24
2019-02-10T14:44:20.005Z,0.27
2019-02-10T14:49:29.192Z,0.27
2019-02-10T14:54:38.546Z,0.28
2019-02-10T14:59:47.734Z,0.29
2019-02-10T15:04:57.040Z,0.35
2019-02-10T15:10:06.226Z,0.38
2019-02-10T15:15:15.525Z,0.25
2019-02-10T15:20:24.733Z,0.28
2019-02-10T15:25:34.015Z,0.32
2019-02-10T15:30:43.233Z,0.26
2019-02-10T15:35:52.539Z,0.33
2019-02-10T15:41:02.105Z,0.27
2019-02-10T15:46:11.459Z,0.21
2019-02-10T15:51:31.380Z,0.24
2019-02-10T15:56:29.558Z,0.28
2019-02-10T16:01:38.747Z,0.47
2019-02-10T16:06:48.102Z,0.35
2019-02-10T16:11:57.396Z,0.49
2019-02-10T16:17:06.697Z,0.27
2019-02-10T16:22:15.922Z,0.34
2019-02-10T16:27:49.831Z,0.33
2019-02-10T16:32:59.069Z,0.27
2019-02-10T16:38:08.263Z,0.39
2019-02-10T16:43:17.434Z,0.47
2019-02-10T16:48:26.710Z,0.48
2019-02-10T16:53:35.923Z,0.57
2019-02-10T16:58:45.198Z,0.37
2019-02-10T17:03:54.435Z,0.62
2019-02-10T17:09:03.632Z,0.64
2019-02-10T17:14:12.832Z,0.84
2019-02-10T17:19:22.059Z,1.07
2019-02-10T17:24:31.478Z,0.50
2019-02-10T17:29:41.074Z,0.92
2019-02-10T17:34:50.351Z,0.66
2019-02-10T17:39:59.700Z,0.63
2019-02-10T17:45:09.200Z,0.41
2019-02-10T17:50:18.878Z,0.71
2019-02-10T17:55:29.081Z,0.56
2019-02-10T18:00:28.710Z,0.45
2019-02-10T18:05:38.430Z,0.48
2019-02-10T18:10:48.913Z,0.66
2019-02-10T18:15:48.559Z,0.62
2019-02-10T18:20:58.174Z,0.82
2019-02-10T18:26:07.955Z,0.36
2019-02-10T18:31:17.147Z,0.50
2019-02-10T18:36:26.663Z,0.55
2019-02-10T18:41:39.392Z,0.80
2019-02-10T18:46:44.705Z,0.81
2019-02-10T18:51:53.911Z,0.49
2019-02-10T18:57:03.235Z,0.68
2019-02-10T19:02:12.403Z,0.54
2019-02-10T19:07:21.703Z,0.45
2019-02-10T19:12:30.878Z,0.64
2019-02-10T19:17:40.197Z,0.61
2019-02-10T19:22:49.372Z,0.60
2019-02-10T19:27:58.634Z,0.69
2019-02-10T19:33:07.817Z,0.99
2019-02-10T19:38:17.058Z,0.76
2019-02-10T19:43:26.217Z,0.49
2019-02-10T19:48:35.520Z,0.77
2019-02-10T19:53:44.779Z,0.60
2019-02-10T19:58:54.049Z,0.69
2019-02-10T20:04:03.199Z,1.14
2019-02-10T20:09:12.471Z,0.54
2019-02-10T20:14:21.639Z,0.86
2019-02-10T20:19:30.838Z,0.84
2019-02-10T20:24:40.062Z,0.75
2019-02-10T20:29:49.362Z,0.97
2019-02-10T20:34:58.517Z,0.76
2019-02-10T20:40:07.810Z,0.90
2019-02-10T20:45:17.016Z,2.08
2019-02-10T20:50:26.280Z,1.33
2019-02-10T20:55:35.694Z,1.12
2019-02-10T21:00:44.950Z,1.56
2019-02-10T21:05:54.306Z,2.73
2019-02-10T21:11:03.783Z,2.69
2019-02-10T21:16:13.145Z,2.56
2019-02-10T21:21:22.366Z,3.41
2019-02-10T21:26:31.562Z,2.26
2019-02-10T21:31:40.807Z,2.22
2019-02-10T21:36:52.766Z,2.16
2019-02-10T21:41:51.995Z,1.85
2019-02-10T21:47:01.186Z,1.58
2019-02-10T21:52:10.583Z,1.29
2019-02-10T21:57:19.752Z,1.13
2019-02-10T22:02:29.047Z,1.06
2019-02-10T22:07:38.192Z,0.91
2019-02-10T22:12:47.389Z,1.11
2019-02-10T22:17:56.626Z,0.48
2019-02-10T22:23:05.855Z,0.80
2019-02-10T22:28:15.186Z,0.89
2019-02-10T22:33:24.487Z,0.61
2019-02-10T22:38:33.728Z,0.48
2019-02-10T22:43:42.933Z,2.13
2019-02-10T22:48:52.159Z,0.61
2019-02-10T22:54:01.380Z,0.91
2019-02-10T22:59:10.576Z,1.23
2019-02-10T23:04:19.772Z,0.73
2019-02-10T23:09:28.995Z,0.84
2019-02-10T23:14:38.309Z,1.95
2019-02-10T23:19:47.664Z,1.28
2019-02-10T23:24:56.828Z,1.59
2019-02-10T23:30:06.016Z,1.48
2019-02-10T23:35:15.201Z,1.66
2019-02-10T23:40:24.569Z,1.20
2019-02-10T23:45:33.824Z,0.74
2019-02-10T23:50:43.227Z,0.86
2019-02-10T23:55:52.414Z,1.31
